Clarence, Iowa
Current Conditions -  °F | °C
As of 2:15 PM on Sunday 23 Nov 2014 (Local Time) from KMXO Reporting Station
Light Rain Light Rain  
Wind Chill: 50°   Ceiling: 400
Heat Index: 50°   Visibility: 2.5mi
Dew Point: 50°   Wind: 7mph
Humidity: 100%   Direction: 130°SE
Pressure: 29.38"   Gusts: NA
Location:  41.89°N, 91.06°W
Report Text: KMXO 232015Z AUTO 13006KT 2 1/2SM -RA OVC004 10/10 A2938 RMK AO2
Loading
Personal Weather Stations






























Interactive Weather Map New forecast layout! Learn more

10-Day Weather Forecast

Advertisements
Track Severe Weather on mobile